createdAt,value
2018-08-17T00:00:55.336Z,84.06
2018-08-17T00:01:55.228Z,84.06
2018-08-17T00:02:55.143Z,83.86
2018-08-17T00:03:55.056Z,84.16
2018-08-17T00:04:54.967Z,84.06
2018-08-17T00:05:54.894Z,84.30
2018-08-17T00:06:54.790Z,84.01
2018-08-17T00:07:54.699Z,83.67
2018-08-17T00:08:54.608Z,83.96
2018-08-17T00:09:54.520Z,84.54
2018-08-17T00:10:54.433Z,84.16
2018-08-17T00:11:54.359Z,84.06
2018-08-17T00:12:54.255Z,83.77
2018-08-17T00:13:54.166Z,83.29
2018-08-17T00:14:54.077Z,83.48
2018-08-17T00:15:54.005Z,84.06
2018-08-17T00:16:53.908Z,84.83
2018-08-17T00:17:53.812Z,85.07
2018-08-17T00:18:53.723Z,84.88
2018-08-17T00:19:53.635Z,85.36
2018-08-17T00:20:53.548Z,85.84
2018-08-17T00:21:53.477Z,85.27
2018-08-17T00:22:53.374Z,85.27
2018-08-17T00:23:53.277Z,85.07
2018-08-17T00:24:53.190Z,84.73
2018-08-17T00:25:53.105Z,85.07
2018-08-17T00:26:53.028Z,84.73
2018-08-17T00:27:52.922Z,84.73
2018-08-17T00:28:52.834Z,84.06
2018-08-17T00:29:52.749Z,83.86
2018-08-17T00:30:52.661Z,83.96
2018-08-17T00:31:52.588Z,84.44
2018-08-17T00:32:52.490Z,84.06
2018-08-17T00:33:52.394Z,84.44
2018-08-17T00:34:52.303Z,84.83
2018-08-17T00:35:52.218Z,84.54
2018-08-17T00:36:52.145Z,84.88
2018-08-17T00:37:52.038Z,84.83
2018-08-17T00:38:51.951Z,84.73
2018-08-17T00:39:51.865Z,84.34
2018-08-17T00:40:51.773Z,84.25
2018-08-17T00:41:52.331Z,83.96
2018-08-17T00:42:51.595Z,83.29
2018-08-17T00:43:51.504Z,84.25
2018-08-17T00:44:51.413Z,83.96
2018-08-17T00:45:51.326Z,84.25
2018-08-17T00:46:51.253Z,85.21
2018-08-17T00:47:51.148Z,84.88
2018-08-17T00:48:51.064Z,84.98
2018-08-17T00:49:50.974Z,85.31
2018-08-17T00:50:50.882Z,84.88
2018-08-17T00:51:50.809Z,85.21
2018-08-17T00:52:50.703Z,85.27
2018-08-17T00:53:50.616Z,85.17
2018-08-17T00:54:50.528Z,85.27
2018-08-17T00:55:50.440Z,84.78
2018-08-17T00:56:50.370Z,85.07
2018-08-17T00:57:50.261Z,84.98
2018-08-17T00:58:50.173Z,85.17
2018-08-17T00:59:50.084Z,85.36
2018-08-17T01:00:50.015Z,84.98
2018-08-17T01:01:49.920Z,85.55
2018-08-17T01:02:49.815Z,85.02
2018-08-17T01:03:49.728Z,85.07
2018-08-17T01:04:49.643Z,84.83
2018-08-17T01:05:49.549Z,85.21
2018-08-17T01:06:49.476Z,85.02
2018-08-17T01:07:49.373Z,85.02
2018-08-17T01:08:49.287Z,84.44
2018-08-17T01:09:49.194Z,84.73
2018-08-17T01:10:49.109Z,84.54
2018-08-17T01:11:49.036Z,84.92
2018-08-17T01:12:48.933Z,85.02
2018-08-17T01:13:48.839Z,85.21
2018-08-17T01:14:48.751Z,84.83
2018-08-17T01:15:48.664Z,85.17
2018-08-17T01:16:48.590Z,85.65
2018-08-17T01:17:48.484Z,85.65
2018-08-17T01:18:48.395Z,85.84
2018-08-17T01:19:48.306Z,85.55
2018-08-17T01:20:48.218Z,86.52
2018-08-17T01:21:48.146Z,86.52
2018-08-17T01:22:48.040Z,86.52
2018-08-17T01:23:47.953Z,86.61
2018-08-17T01:24:47.864Z,85.94
2018-08-17T01:25:47.774Z,85.55
2018-08-17T01:26:47.701Z,85.94
2018-08-17T01:27:47.600Z,85.84
2018-08-17T01:28:47.509Z,85.69
2018-08-17T01:29:47.417Z,85.11
2018-08-17T01:30:47.333Z,85.46
2018-08-17T01:31:47.257Z,85.31
2018-08-17T01:32:47.152Z,85.60
2018-08-17T01:33:47.062Z,85.11
2018-08-17T01:34:46.978Z,84.44
2018-08-17T01:35:46.888Z,84.44
2018-08-17T01:36:46.814Z,84.54
2018-08-17T01:37:46.706Z,84.44
2018-08-17T01:38:46.620Z,84.73
2018-08-17T01:39:46.534Z,84.44
2018-08-17T01:40:46.441Z,85.17
2018-08-17T01:41:46.368Z,84.69
2018-08-17T01:42:46.262Z,85.17
2018-08-17T01:43:46.174Z,85.17
2018-08-17T01:44:46.086Z,85.75
2018-08-17T01:45:45.996Z,85.55
2018-08-17T01:46:45.924Z,85.65
2018-08-17T01:47:45.818Z,85.75
2018-08-17T01:48:45.730Z,85.65
2018-08-17T01:49:45.639Z,84.98
2018-08-17T01:50:45.552Z,84.98
2018-08-17T01:51:45.481Z,85.17
2018-08-17T01:52:45.374Z,85.75
2018-08-17T01:53:45.304Z,85.55
2018-08-17T01:54:45.199Z,85.65
2018-08-17T01:55:45.109Z,85.55
2018-08-17T01:56:45.036Z,85.55
2018-08-17T01:57:45.035Z,85.55
2018-08-17T01:58:44.841Z,85.27
2018-08-17T01:59:44.755Z,85.55
2018-08-17T02:00:44.661Z,85.36
2018-08-17T02:01:44.581Z,85.55
2018-08-17T02:02:44.509Z,85.46
2018-08-17T02:03:44.396Z,86.61
2018-08-17T02:04:44.308Z,86.52
2018-08-17T02:05:44.217Z,87.19
2018-08-17T02:06:44.129Z,86.90
2018-08-17T02:07:44.056Z,86.61
2018-08-17T02:08:43.949Z,86.90
2018-08-17T02:09:43.861Z,86.13
2018-08-17T02:10:43.772Z,86.80
2018-08-17T02:11:43.784Z,86.61
2018-08-17T02:12:43.613Z,86.71
2018-08-17T02:13:43.507Z,86.71
2018-08-17T02:14:43.514Z,86.76
2018-08-17T02:15:43.328Z,87.67
2018-08-17T02:16:43.241Z,87.72
2018-08-17T02:17:43.169Z,87.43
2018-08-17T02:18:43.164Z,87.43
2018-08-17T02:19:42.972Z,87.82
2018-08-17T02:20:42.881Z,88.39
2018-08-17T02:21:42.794Z,88.20
2018-08-17T02:22:42.724Z,88.10
2018-08-17T02:23:42.619Z,88.49
2018-08-17T02:24:42.529Z,88.49
2018-08-17T02:25:42.550Z,89.07
2018-08-17T02:26:42.350Z,89.64
2018-08-17T02:27:42.276Z,89.07
2018-08-17T02:28:42.174Z,88.20
2018-08-17T02:29:42.086Z,87.48
2018-08-17T02:30:41.992Z,87.09
2018-08-17T02:31:41.908Z,85.94
2018-08-17T02:32:41.933Z,85.84
2018-08-17T02:33:41.728Z,86.71
2018-08-17T02:34:41.635Z,86.52
2018-08-17T02:35:41.549Z,87.09
2018-08-17T02:36:41.461Z,87.53
2018-08-17T02:37:41.386Z,88.39
2018-08-17T02:38:41.281Z,88.20
2018-08-17T02:39:41.291Z,87.82
2018-08-17T02:40:41.102Z,87.67
2018-08-17T02:41:41.014Z,87.57
2018-08-17T02:42:40.947Z,87.57
2018-08-17T02:43:40.844Z,86.80
2018-08-17T02:44:40.745Z,87.09
2018-08-17T02:45:40.658Z,87.67
2018-08-17T02:46:40.680Z,87.96
2018-08-17T02:47:40.495Z,88.15
2018-08-17T02:48:40.389Z,87.57
2018-08-17T02:49:40.299Z,87.29
2018-08-17T02:50:40.215Z,87.09
2018-08-17T02:51:40.124Z,87.67
2018-08-17T02:52:40.052Z,87.38
2018-08-17T02:53:40.043Z,87.96
2018-08-17T02:54:39.860Z,88.15
2018-08-17T02:55:39.765Z,87.62
2018-08-17T02:56:39.678Z,88.30
2018-08-17T02:57:39.605Z,89.26
2018-08-17T02:58:39.501Z,88.59
2018-08-17T02:59:39.550Z,88.59
2018-08-17T03:00:39.426Z,88.59
2018-08-17T03:01:39.235Z,87.92
2018-08-17T03:02:39.161Z,89.83
2018-08-17T03:03:39.057Z,89.64
2018-08-17T03:04:38.971Z,89.93
2018-08-17T03:05:38.877Z,90.84
2018-08-17T03:06:38.787Z,91.61
2018-08-17T03:07:38.803Z,91.52
2018-08-17T03:08:38.611Z,92.33
2018-08-17T03:09:38.519Z,92.33
2018-08-17T03:10:38.430Z,93.20
2018-08-17T03:11:38.342Z,93.59
2018-08-17T03:12:38.272Z,94.12
2018-08-17T03:13:38.163Z,94.69
2018-08-17T03:14:38.178Z,94.59
2018-08-17T03:15:37.983Z,94.98
2018-08-17T03:16:37.893Z,96.22
2018-08-17T03:17:37.835Z,98.48
2018-08-17T03:18:37.716Z,98.28
2018-08-17T03:19:37.627Z,98.67
2018-08-17T03:20:37.537Z,98.67
2018-08-17T03:21:37.448Z,98.52
2018-08-17T03:22:37.377Z,99.10
2018-08-17T03:23:37.269Z,99.58
2018-08-17T03:24:37.180Z,99.99
2018-08-17T03:25:37.089Z,99.99
2018-08-17T03:26:37.000Z,99.99
2018-08-17T03:27:36.927Z,99.99
2018-08-17T03:28:36.936Z,99.99
2018-08-17T03:29:36.732Z,99.99
2018-08-17T03:30:36.646Z,99.99
2018-08-17T03:31:36.558Z,99.99
2018-08-17T03:32:36.479Z,99.99
2018-08-17T03:33:36.373Z,99.99
2018-08-17T03:34:36.285Z,99.99
2018-08-17T03:35:36.194Z,99.99
2018-08-17T03:36:36.106Z,99.99
2018-08-17T03:37:36.036Z,99.99
2018-08-17T03:38:35.927Z,99.99
2018-08-17T03:39:35.842Z,99.99
2018-08-17T03:40:35.745Z,99.99
2018-08-17T03:41:35.658Z,99.99
2018-08-17T03:42:35.581Z,99.99
2018-08-17T03:43:35.478Z,99.99
2018-08-17T03:44:35.388Z,99.99
2018-08-17T03:45:35.296Z,99.99
2018-08-17T03:46:35.210Z,99.99
2018-08-17T03:47:35.117Z,99.99
2018-08-17T03:48:35.042Z,99.99
2018-08-17T03:49:34.938Z,99.99
2018-08-17T03:50:34.847Z,99.99
2018-08-17T03:51:34.759Z,99.99
2018-08-17T03:52:34.670Z,99.99
2018-08-17T03:53:34.593Z,99.99
2018-08-17T03:54:34.490Z,99.99
2018-08-17T03:55:34.397Z,99.99
2018-08-17T03:56:34.308Z,99.99
2018-08-17T03:57:34.220Z,99.99
2018-08-17T03:58:34.144Z,99.99
2018-08-17T03:59:34.041Z,99.99
2018-08-17T04:00:33.947Z,99.99
2018-08-17T04:01:33.856Z,99.99
2018-08-17T04:02:33.770Z,99.99
2018-08-17T04:03:33.696Z,99.99
2018-08-17T04:04:33.589Z,99.99
2018-08-17T04:05:33.493Z,99.99
2018-08-17T04:06:33.405Z,99.99
2018-08-17T04:07:33.315Z,99.99
2018-08-17T04:08:33.240Z,99.99
2018-08-17T04:09:33.133Z,99.99
2018-08-17T04:10:33.046Z,99.99
2018-08-17T04:11:32.953Z,99.99
2018-08-17T04:12:32.863Z,99.99
2018-08-17T04:13:32.790Z,99.99
2018-08-17T04:14:32.682Z,99.99
2018-08-17T04:15:32.661Z,99.99
2018-08-17T04:16:32.503Z,99.99
2018-08-17T04:17:32.412Z,99.99
2018-08-17T04:18:32.337Z,99.99
2018-08-17T04:19:32.230Z,99.99
2018-08-17T04:20:32.139Z,99.99
2018-08-17T04:21:32.050Z,99.99
2018-08-17T04:22:31.963Z,99.99
2018-08-17T04:23:31.889Z,99.99
2018-08-17T04:24:31.779Z,99.99
2018-08-17T04:25:31.689Z,99.99
2018-08-17T04:26:31.597Z,99.99
2018-08-17T04:27:31.508Z,99.99
2018-08-17T04:28:31.433Z,99.99
2018-08-17T04:29:31.331Z,99.99
2018-08-17T04:30:31.239Z,99.99
2018-08-17T04:31:31.146Z,99.99
2018-08-17T04:32:31.054Z,99.99
2018-08-17T04:33:30.984Z,99.99
2018-08-17T04:34:30.878Z,99.99
2018-08-17T04:35:30.841Z,99.99
2018-08-17T04:36:30.694Z,99.99
2018-08-17T04:37:30.605Z,99.99
2018-08-17T04:38:30.535Z,99.99
2018-08-17T04:39:30.426Z,99.99
2018-08-17T04:40:30.336Z,99.99
2018-08-17T04:41:30.243Z,99.99
2018-08-17T04:42:30.157Z,99.99
2018-08-17T04:43:30.082Z,99.99
2018-08-17T04:44:29.975Z,99.99
2018-08-17T04:45:29.880Z,99.99
2018-08-17T04:46:29.794Z,99.99
2018-08-17T04:47:29.703Z,99.99
2018-08-17T04:48:29.627Z,99.99
2018-08-17T04:49:29.523Z,99.99
2018-08-17T04:50:29.433Z,99.99
2018-08-17T04:51:29.445Z,99.99
2018-08-17T04:52:29.255Z,99.99
2018-08-17T04:53:29.176Z,99.99
2018-08-17T04:54:29.078Z,99.99
2018-08-17T04:55:28.983Z,99.99
2018-08-17T04:56:28.889Z,99.99
2018-08-17T04:57:28.797Z,99.99
2018-08-17T04:58:28.832Z,99.99
2018-08-17T04:59:28.617Z,99.99
2018-08-17T05:00:28.533Z,99.99
2018-08-17T05:01:28.441Z,99.99
2018-08-17T05:02:28.366Z,99.99
2018-08-17T05:03:28.301Z,99.99
2018-08-17T05:04:28.170Z,99.99
2018-08-17T05:05:28.181Z,99.99
2018-08-17T05:06:27.991Z,99.99
2018-08-17T05:07:27.905Z,99.99
2018-08-17T05:08:27.826Z,99.99
2018-08-17T05:09:27.721Z,99.99
2018-08-17T05:10:27.629Z,99.99
2018-08-17T05:11:27.540Z,99.99
2018-08-17T05:12:27.550Z,99.99
2018-08-17T05:13:27.378Z,99.99
2018-08-17T05:14:27.270Z,99.99
2018-08-17T05:15:27.182Z,99.99
2018-08-17T05:16:27.093Z,99.39
2018-08-17T05:17:27.004Z,98.67
2018-08-17T05:18:26.927Z,98.67
2018-08-17T05:19:26.931Z,97.14
2018-08-17T05:20:26.734Z,97.09
2018-08-17T05:21:26.672Z,95.94
2018-08-17T05:22:26.560Z,95.75
2018-08-17T05:23:26.496Z,95.40
2018-08-17T05:24:26.376Z,94.83
2018-08-17T05:25:26.285Z,94.45
2018-08-17T05:26:26.296Z,93.96
2018-08-17T05:27:26.106Z,93.44
2018-08-17T05:28:26.035Z,92.57
2018-08-17T05:29:25.929Z,91.61
2018-08-17T05:30:25.839Z,90.89
2018-08-17T05:31:25.749Z,89.92
2018-08-17T05:32:25.659Z,89.25
2018-08-17T05:33:25.706Z,89.29
2018-08-17T05:34:25.482Z,88.43
2018-08-17T05:35:25.395Z,87.66
2018-08-17T05:36:25.302Z,87.18
2018-08-17T05:37:25.215Z,86.99
2018-08-17T05:38:25.130Z,86.74
2018-08-17T05:39:25.052Z,86.55
2018-08-17T05:40:25.047Z,85.58
2018-08-17T05:41:24.866Z,85.68
2018-08-17T05:42:24.769Z,85.68
2018-08-17T05:43:24.684Z,85.39
2018-08-17T05:44:24.633Z,86.07
2018-08-17T05:45:24.504Z,85.72
2018-08-17T05:46:24.422Z,84.56
2018-08-17T05:47:24.433Z,84.76
2018-08-17T05:48:24.240Z,84.47
2018-08-17T05:49:24.168Z,84.18
2018-08-17T05:50:24.062Z,83.16
2018-08-17T05:51:23.974Z,83.03
2018-08-17T05:52:23.885Z,83.12
2018-08-17T05:53:23.800Z,83.70
2018-08-17T05:54:23.726Z,82.93
2018-08-17T05:55:23.624Z,83.41
2018-08-17T05:56:23.535Z,83.16
2018-08-17T05:57:23.447Z,82.87
2018-08-17T05:58:23.359Z,82.78
2018-08-17T05:59:23.288Z,82.29
2018-08-17T06:00:23.181Z,83.07
2018-08-17T06:01:23.094Z,83.26
2018-08-17T06:02:23.008Z,83.84
2018-08-17T06:03:22.918Z,82.78
2018-08-17T06:04:22.846Z,82.01
2018-08-17T06:05:22.741Z,82.49
2018-08-17T06:06:22.653Z,82.01
2018-08-17T06:07:22.566Z,82.14
2018-08-17T06:08:22.478Z,81.95
2018-08-17T06:09:22.408Z,81.66
2018-08-17T06:10:22.304Z,81.76
2018-08-17T06:11:22.376Z,81.76
2018-08-17T06:12:22.129Z,81.47
2018-08-17T06:13:22.044Z,81.18
2018-08-17T06:14:21.971Z,80.31
2018-08-17T06:15:21.866Z,81.09
2018-08-17T06:16:21.778Z,81.18
2018-08-17T06:17:21.693Z,81.09
2018-08-17T06:18:21.607Z,81.47
2018-08-17T06:19:21.598Z,80.79
2018-08-17T06:20:21.431Z,80.51
2018-08-17T06:21:21.349Z,80.89
2018-08-17T06:22:21.263Z,80.51
2018-08-17T06:23:21.169Z,80.31
2018-08-17T06:24:21.103Z,80.22
2018-08-17T06:25:20.995Z,80.99
2018-08-17T06:26:20.911Z,80.02
2018-08-17T06:27:21.711Z,80.02
2018-08-17T06:28:20.734Z,80.83
2018-08-17T06:29:20.665Z,79.97
2018-08-17T06:30:20.565Z,80.26
2018-08-17T06:31:20.478Z,80.26
2018-08-17T06:32:20.390Z,81.80
2018-08-17T06:33:20.299Z,79.77
2018-08-17T06:34:20.230Z,79.97
2018-08-17T06:35:20.126Z,80.16
2018-08-17T06:36:20.040Z,82.48
2018-08-17T06:37:20.041Z,81.22
2018-08-17T06:38:19.865Z,79.97
2018-08-17T06:39:19.801Z,79.29
2018-08-17T06:40:19.695Z,78.33
2018-08-17T06:41:19.604Z,79.29
2018-08-17T06:42:19.517Z,80.49
2018-08-17T06:43:19.431Z,79.72
2018-08-17T06:44:19.363Z,79.75
2018-08-17T06:45:19.260Z,78.89
2018-08-17T06:46:19.170Z,78.15
2018-08-17T06:47:19.085Z,76.64
2018-08-17T06:48:19.000Z,77.22
2018-08-17T06:49:18.929Z,76.16
2018-08-17T06:50:18.967Z,76.64
2018-08-17T06:51:18.741Z,77.03
2018-08-17T06:52:18.654Z,75.97
2018-08-17T06:53:18.569Z,75.33
2018-08-17T06:54:18.497Z,74.17
2018-08-17T06:55:18.396Z,73.49
2018-08-17T06:56:18.313Z,73.39
2018-08-17T06:57:18.313Z,73.43
2018-08-17T06:58:18.141Z,73.91
2018-08-17T06:59:18.070Z,72.56
2018-08-17T07:00:17.969Z,72.30
2018-08-17T07:01:17.885Z,72.27
2018-08-17T07:02:17.804Z,72.69
2018-08-17T07:03:17.714Z,72.50
2018-08-17T07:04:17.648Z,71.62
2018-08-17T07:05:17.546Z,71.66
2018-08-17T07:06:17.462Z,71.37
2018-08-17T07:07:17.378Z,69.43
2018-08-17T07:08:17.292Z,69.57
2018-08-17T07:09:17.329Z,69.24
2018-08-17T07:10:17.125Z,69.24
2018-08-17T07:11:17.049Z,69.47
2018-08-17T07:12:16.959Z,69.57
2018-08-17T07:13:16.875Z,68.24
2018-08-17T07:14:16.807Z,68.34
2018-08-17T07:15:16.709Z,68.15
2018-08-17T07:16:16.628Z,68.24
2018-08-17T07:17:16.542Z,67.31
2018-08-17T07:18:16.461Z,67.76
2018-08-17T07:19:16.396Z,69.12
2018-08-17T07:20:16.295Z,67.85
2018-08-17T07:21:16.212Z,67.47
2018-08-17T07:22:16.131Z,67.02
2018-08-17T07:23:16.050Z,68.08
2018-08-17T07:24:15.968Z,66.72
2018-08-17T07:25:16.007Z,68.02
2018-08-17T07:26:15.803Z,66.08
2018-08-17T07:27:15.720Z,66.05
2018-08-17T07:28:15.721Z,66.53
2018-08-17T07:29:15.558Z,67.60
2018-08-17T07:30:15.496Z,67.79
2018-08-17T07:31:15.397Z,66.72
2018-08-17T07:32:15.411Z,66.27
2018-08-17T07:33:15.233Z,65.43
2018-08-17T07:34:15.155Z,65.30
2018-08-17T07:35:15.089Z,65.30
2018-08-17T07:36:14.991Z,64.65
2018-08-17T07:37:14.910Z,65.43
2018-08-17T07:38:14.830Z,65.98
2018-08-17T07:39:14.849Z,68.24
2018-08-17T07:40:14.681Z,68.70
2018-08-17T07:41:14.583Z,67.66
2018-08-17T07:42:14.503Z,68.47
2018-08-17T07:43:14.424Z,66.72
2018-08-17T07:44:14.343Z,67.31
2018-08-17T07:45:14.277Z,68.21
2018-08-17T07:46:14.290Z,66.53
2018-08-17T07:47:14.115Z,66.79
2018-08-17T07:48:14.201Z,65.08
2018-08-17T07:49:13.936Z,63.36
2018-08-17T07:50:13.876Z,62.71
2018-08-17T07:51:13.778Z,62.97
2018-08-17T07:52:13.698Z,64.07
2018-08-17T07:53:13.716Z,62.90
2018-08-17T07:54:13.535Z,61.77
2018-08-17T07:55:13.474Z,60.50
2018-08-17T07:56:13.379Z,60.79
2018-08-17T07:57:13.294Z,59.85
2018-08-17T07:58:13.218Z,60.60
2018-08-17T07:59:13.137Z,61.08
2018-08-17T08:00:13.168Z,59.88
2018-08-17T08:01:12.976Z,59.20
2018-08-17T08:02:12.905Z,59.23
2018-08-17T08:03:12.814Z,59.64
2018-08-17T08:04:12.735Z,57.99
2018-08-17T08:05:12.672Z,57.14
2018-08-17T08:06:12.578Z,57.11
2018-08-17T08:07:12.600Z,59.07
2018-08-17T08:08:12.417Z,60.92
2018-08-17T08:09:12.340Z,60.44
2018-08-17T08:10:12.280Z,62.32
2018-08-17T08:11:12.243Z,62.51
2018-08-17T08:12:12.102Z,60.57
2018-08-17T08:13:12.022Z,60.21
2018-08-17T08:14:12.043Z,59.46
2018-08-17T08:15:11.881Z,58.29
2018-08-17T08:16:11.784Z,59.13
2018-08-17T08:17:11.706Z,58.61
2018-08-17T08:18:11.625Z,58.03
2018-08-17T08:19:11.557Z,58.10
2018-08-17T08:20:11.534Z,58.97
2018-08-17T08:21:11.502Z,58.22
2018-08-17T08:22:11.309Z,58.64
2018-08-17T08:23:11.235Z,58.35
2018-08-17T08:24:11.155Z,59.33
2018-08-17T08:25:11.076Z,58.54
2018-08-17T08:26:11.085Z,58.09
2018-08-17T08:27:10.916Z,58.28
2018-08-17T08:28:10.942Z,57.79
2018-08-17T08:29:10.758Z,57.04
2018-08-17T08:30:10.683Z,54.53
2018-08-17T08:31:10.620Z,52.90
2018-08-17T08:32:10.528Z,52.44
2018-08-17T08:33:10.459Z,53.34
2018-08-17T08:34:10.367Z,53.54
2018-08-17T08:35:10.402Z,53.32
2018-08-17T08:36:10.227Z,53.15
2018-08-17T08:37:10.134Z,52.56
2018-08-17T08:38:10.056Z,52.93
2018-08-17T08:39:09.980Z,54.17
2018-08-17T08:40:09.900Z,53.91
2018-08-17T08:41:09.838Z,52.44
2018-08-17T08:42:09.845Z,53.27
2018-08-17T08:43:09.666Z,52.20
2018-08-17T08:44:09.603Z,52.69
2018-08-17T08:45:09.519Z,52.31
2018-08-17T08:46:09.454Z,52.25
2018-08-17T08:47:09.356Z,52.37
2018-08-17T08:48:09.280Z,53.44
2018-08-17T08:49:09.202Z,52.00
2018-08-17T08:50:09.129Z,52.49
2018-08-17T08:51:09.067Z,53.66
2018-08-17T08:52:08.970Z,52.78
2018-08-17T08:53:08.897Z,52.59
2018-08-17T08:54:08.819Z,52.32
2018-08-17T08:55:08.744Z,51.93
2018-08-17T08:56:08.848Z,50.85
2018-08-17T08:57:08.592Z,51.07
2018-08-17T08:58:08.510Z,50.59
2018-08-17T08:59:08.431Z,49.33
2018-08-17T09:00:08.354Z,48.85
2018-08-17T09:01:08.295Z,51.46
2018-08-17T09:02:08.208Z,50.02
2018-08-17T09:03:08.130Z,49.65
2018-08-17T09:04:08.060Z,48.60
2018-08-17T09:05:07.976Z,49.31
2018-08-17T09:06:07.914Z,48.03
2018-08-17T09:07:07.822Z,47.64
2018-08-17T09:08:07.760Z,47.35
2018-08-17T09:09:07.668Z,47.52
2018-08-17T09:10:07.595Z,49.09
2018-08-17T09:11:07.540Z,48.90
2018-08-17T09:12:07.442Z,48.30
2018-08-17T09:13:07.369Z,48.50
2018-08-17T09:14:07.289Z,52.34
2018-08-17T09:15:07.221Z,52.47
2018-08-17T09:16:07.153Z,51.51
2018-08-17T09:17:07.062Z,52.20
2018-08-17T09:18:06.988Z,51.29
2018-08-17T09:19:06.912Z,51.29
2018-08-17T09:20:06.833Z,51.81
2018-08-17T09:21:06.777Z,51.51
2018-08-17T09:22:06.698Z,50.54
2018-08-17T09:23:06.606Z,51.29
2018-08-17T09:24:06.532Z,51.22
2018-08-17T09:25:06.453Z,48.99
2018-08-17T09:26:06.397Z,50.42
2018-08-17T09:27:06.303Z,50.26
2018-08-17T09:28:06.229Z,51.46
2018-08-17T09:29:06.168Z,52.36
2018-08-17T09:30:06.146Z,52.93
2018-08-17T09:31:06.013Z,49.90
2018-08-17T09:32:05.920Z,48.77
2018-08-17T09:33:05.844Z,48.70
2018-08-17T09:34:05.772Z,49.75
2018-08-17T09:35:05.691Z,50.37
2018-08-17T09:36:05.666Z,49.09
2018-08-17T09:37:05.538Z,49.51
2018-08-17T09:38:05.460Z,47.20
2018-08-17T09:39:05.385Z,48.30
2018-08-17T09:40:05.309Z,45.98
2018-08-17T09:41:05.247Z,46.44
2018-08-17T09:42:05.197Z,45.51
2018-08-17T09:43:05.081Z,43.70
2018-08-17T09:44:05.005Z,45.91
2018-08-17T09:45:04.928Z,46.18
2018-08-17T09:46:04.868Z,46.86
2018-08-17T09:47:04.777Z,47.92
2018-08-17T09:48:04.701Z,47.04
2018-08-17T09:49:04.628Z,46.11
2018-08-17T09:50:04.551Z,44.88
2018-08-17T09:51:06.947Z,46.91
2018-08-17T09:52:04.397Z,46.91
2018-08-17T09:53:04.321Z,46.91
2018-08-17T09:54:04.246Z,46.05
2018-08-17T09:55:04.170Z,46.17
2018-08-17T09:56:04.113Z,45.78
2018-08-17T09:57:04.116Z,46.59
2018-08-17T09:58:03.947Z,45.80
2018-08-17T09:59:03.871Z,44.45
2018-08-17T10:00:03.791Z,44.45
2018-08-17T10:01:03.731Z,43.69
2018-08-17T10:02:03.642Z,43.57
2018-08-17T10:03:03.565Z,43.37
2018-08-17T10:04:03.528Z,42.88
2018-08-17T10:05:03.412Z,42.61
2018-08-17T10:06:03.342Z,42.24
2018-08-17T10:07:03.280Z,42.33
2018-08-17T10:08:03.188Z,42.65
2018-08-17T10:09:03.110Z,41.86
2018-08-17T10:10:03.059Z,41.98
2018-08-17T10:11:02.963Z,41.88
2018-08-17T10:12:02.904Z,42.00
2018-08-17T10:13:02.810Z,41.00
2018-08-17T10:14:02.739Z,41.11
2018-08-17T10:15:02.660Z,41.41
2018-08-17T10:16:02.590Z,42.99
2018-08-17T10:17:02.530Z,43.02
2018-08-17T10:18:02.434Z,42.72
2018-08-17T10:19:02.360Z,43.49
2018-08-17T10:20:02.282Z,41.72
2018-08-17T10:21:02.256Z,43.12
2018-08-17T10:22:02.486Z,43.82
2018-08-17T10:23:02.062Z,42.76
2018-08-17T10:24:02.090Z,42.58
2018-08-17T10:25:01.911Z,41.98
2018-08-17T10:26:01.839Z,42.15
2018-08-17T10:27:01.778Z,42.50
2018-08-17T10:28:01.686Z,42.52
2018-08-17T10:29:01.612Z,42.74
2018-08-17T10:30:01.534Z,41.11
2018-08-17T10:31:01.565Z,41.43
2018-08-17T10:32:01.431Z,41.14
2018-08-17T10:33:01.310Z,39.80
2018-08-17T10:34:01.264Z,40.00
2018-08-17T10:35:01.173Z,39.98
2018-08-17T10:36:01.084Z,41.41
2018-08-17T10:37:01.027Z,40.55
2018-08-17T10:38:00.936Z,42.08
2018-08-17T10:39:00.862Z,42.46
2018-08-17T10:40:00.787Z,44.13
2018-08-17T10:41:00.711Z,43.91
2018-08-17T10:42:00.652Z,43.69
2018-08-17T10:43:00.568Z,44.03
2018-08-17T10:44:00.489Z,43.37
2018-08-17T10:45:00.409Z,42.52
2018-08-17T10:46:00.336Z,42.55
2018-08-17T10:47:00.277Z,43.72
2018-08-17T10:48:00.191Z,43.43
2018-08-17T10:49:00.162Z,43.55
2018-08-17T10:50:00.034Z,43.94
2018-08-17T10:51:00.063Z,42.19
2018-08-17T10:51:59.900Z,43.08
2018-08-17T10:52:59.808Z,42.10
2018-08-17T10:53:59.733Z,40.53
2018-08-17T10:54:59.661Z,39.95
2018-08-17T10:55:59.582Z,39.76
2018-08-17T10:56:59.522Z,40.58
2018-08-17T10:57:59.536Z,40.76
2018-08-17T10:58:59.357Z,41.23
2018-08-17T10:59:59.286Z,40.94
2018-08-17T11:00:59.223Z,40.72
2018-08-17T11:01:59.148Z,40.64
2018-08-17T11:02:59.059Z,42.15
2018-08-17T11:03:58.980Z,43.99
2018-08-17T11:04:58.912Z,43.49
2018-08-17T11:05:58.832Z,42.27
2018-08-17T11:06:58.771Z,43.12
2018-08-17T11:07:58.679Z,41.76
2018-08-17T11:08:58.604Z,40.90
2018-08-17T11:09:58.533Z,39.90
2018-08-17T11:10:58.514Z,39.31
2018-08-17T11:11:58.396Z,38.54
2018-08-17T11:12:58.325Z,38.39
2018-08-17T11:13:58.232Z,39.22
2018-08-17T11:14:58.154Z,41.39
2018-08-17T11:15:58.076Z,40.88
2018-08-17T11:16:58.020Z,40.98
2018-08-17T11:17:57.928Z,40.66
2018-08-17T11:18:57.853Z,39.62
2018-08-17T11:19:57.776Z,38.84
2018-08-17T11:20:57.700Z,40.68
2018-08-17T11:21:57.641Z,40.45
2018-08-17T11:22:57.604Z,42.13
2018-08-17T11:23:57.475Z,40.88
2018-08-17T11:24:57.399Z,39.23
2018-08-17T11:25:57.320Z,38.56
2018-08-17T11:26:57.264Z,39.25
2018-08-17T11:27:57.172Z,39.54
2018-08-17T11:28:57.111Z,39.86
2018-08-17T11:29:57.021Z,39.41
2018-08-17T11:30:56.946Z,39.86
2018-08-17T11:31:56.886Z,40.95
2018-08-17T11:32:56.794Z,42.21
2018-08-17T11:33:56.722Z,43.66
2018-08-17T11:34:56.645Z,40.45
2018-08-17T11:35:56.567Z,39.80
2018-08-17T11:36:56.509Z,39.84
2018-08-17T11:37:56.418Z,38.85
2018-08-17T11:38:56.344Z,38.45
2018-08-17T11:39:56.267Z,37.68
2018-08-17T11:40:56.192Z,38.29
2018-08-17T11:41:56.134Z,38.13
2018-08-17T11:42:56.041Z,38.52
2018-08-17T11:43:55.965Z,37.85
2018-08-17T11:44:55.891Z,36.47
2018-08-17T11:45:55.817Z,36.83
2018-08-17T11:46:55.757Z,38.39
2018-08-17T11:47:55.665Z,38.46
2018-08-17T11:48:55.591Z,38.53
2018-08-17T11:49:55.516Z,38.25
2018-08-17T11:50:55.443Z,38.45
2018-08-17T11:51:55.386Z,38.46
2018-08-17T11:52:55.304Z,37.38
2018-08-17T11:53:55.278Z,37.32
2018-08-17T11:54:55.148Z,37.24
2018-08-17T11:55:55.075Z,37.30
2018-08-17T11:56:54.999Z,36.74
2018-08-17T11:57:54.941Z,37.48
2018-08-17T11:58:54.844Z,37.78
2018-08-17T11:59:54.768Z,38.66
2018-08-17T12:00:54.698Z,39.84
2018-08-17T12:01:54.632Z,40.74
2018-08-17T12:02:54.577Z,38.21
2018-08-17T12:03:54.469Z,38.34
2018-08-17T12:04:54.398Z,38.98
2018-08-17T12:05:54.321Z,39.86
2018-08-17T12:06:54.249Z,39.80
2018-08-17T12:07:54.187Z,41.92
2018-08-17T12:08:54.095Z,42.05
2018-08-17T12:09:54.023Z,43.69
2018-08-17T12:10:53.947Z,43.59
2018-08-17T12:11:53.875Z,43.03
2018-08-17T12:12:53.814Z,42.07
2018-08-17T12:13:53.727Z,41.89
2018-08-17T12:14:53.647Z,42.21
2018-08-17T12:15:53.570Z,40.84
2018-08-17T12:16:53.494Z,42.33
2018-08-17T12:17:53.435Z,41.74
2018-08-17T12:18:53.405Z,41.60
2018-08-17T12:19:53.268Z,42.13
2018-08-17T12:20:53.293Z,42.15
2018-08-17T12:21:53.122Z,42.07
2018-08-17T12:22:53.055Z,41.11
2018-08-17T12:23:52.961Z,40.53
2018-08-17T12:24:52.898Z,40.70
2018-08-17T12:25:52.817Z,40.70
2018-08-17T12:26:52.743Z,40.53
2018-08-17T12:27:52.680Z,40.84
2018-08-17T12:28:52.582Z,41.68
2018-08-17T12:29:52.505Z,43.15
2018-08-17T12:30:52.432Z,42.11
2018-08-17T12:31:52.357Z,42.02
2018-08-17T12:32:52.299Z,42.23
2018-08-17T12:33:52.204Z,41.76
2018-08-17T12:34:52.124Z,39.82
2018-08-17T12:35:52.051Z,40.80
2018-08-17T12:36:51.979Z,42.10
2018-08-17T12:37:51.915Z,40.63
2018-08-17T12:38:51.823Z,39.54
2018-08-17T12:39:51.747Z,40.64
2018-08-17T12:40:51.677Z,39.17
2018-08-17T12:41:51.695Z,39.95
2018-08-17T12:42:51.534Z,39.00
2018-08-17T12:43:51.441Z,38.80
2018-08-17T12:44:51.364Z,39.47
2018-08-17T12:45:51.289Z,39.29
2018-08-17T12:46:51.212Z,39.31
2018-08-17T12:47:51.156Z,38.53
2018-08-17T12:48:51.068Z,39.29
2018-08-17T12:49:50.984Z,40.58
2018-08-17T12:50:50.910Z,39.43
2018-08-17T12:51:50.833Z,39.62